createdAt,value
2018-09-23T00:00:45.511Z,79.23
2018-09-23T00:01:45.556Z,79.79
2018-09-23T00:02:45.747Z,79.59
2018-09-23T00:03:45.473Z,79.03
2018-09-23T00:04:45.434Z,79.65
2018-09-23T00:05:45.483Z,79.42
2018-09-23T00:06:45.492Z,79.33
2018-09-23T00:07:45.504Z,80.23
2018-09-23T00:08:45.641Z,79.95
2018-09-23T00:09:45.520Z,79.98
2018-09-23T00:10:45.435Z,79.52
2018-09-23T00:11:45.678Z,79.16
2018-09-23T00:12:45.441Z,79.96
2018-09-23T00:13:45.580Z,79.54
2018-09-23T00:14:45.585Z,79.42
2018-09-23T00:15:45.458Z,79.63
2018-09-23T00:16:45.442Z,79.85
2018-09-23T00:17:45.430Z,80.68
2018-09-23T00:18:45.535Z,79.7
2018-09-23T00:19:45.689Z,79.03
2018-09-23T00:20:45.405Z,79.24
2018-09-23T00:21:45.663Z,79.09
2018-09-23T00:22:45.690Z,79.56
2018-09-23T00:23:45.415Z,79.18
2018-09-23T00:24:45.424Z,79.39
2018-09-23T00:25:45.459Z,79.1
2018-09-23T00:26:45.432Z,79.63
2018-09-23T00:27:45.519Z,79.36
2018-09-23T00:28:45.502Z,79.33
2018-09-23T00:29:45.517Z,79.73
2018-09-23T00:30:45.411Z,79.69
2018-09-23T00:31:45.469Z,79.33
2018-09-23T00:32:45.458Z,80.12
2018-09-23T00:33:45.387Z,80.25
2018-09-23T00:34:45.406Z,81.12
2018-09-23T00:35:45.421Z,80.96
2018-09-23T00:36:45.403Z,81.37
2018-09-23T00:37:45.537Z,81.17
2018-09-23T00:38:45.392Z,81.4
2018-09-23T00:39:45.484Z,80.83
2018-09-23T00:40:45.383Z,80.4
2018-09-23T00:41:45.386Z,80.34
2018-09-23T00:42:45.392Z,82.14
2018-09-23T00:43:45.412Z,81.7
2018-09-23T00:44:45.385Z,81.78
2018-09-23T00:45:45.418Z,82.61
2018-09-23T00:46:45.370Z,82.52
2018-09-23T00:47:45.378Z,81.88
2018-09-23T00:48:45.369Z,82.48
2018-09-23T00:49:45.377Z,82.89
2018-09-23T00:50:45.402Z,83.13
2018-09-23T00:51:45.366Z,84.06
2018-09-23T00:52:45.400Z,83.91
2018-09-23T00:53:45.506Z,83.78
2018-09-23T00:54:45.476Z,83.12
2018-09-23T00:55:45.786Z,82.76
2018-09-23T00:56:45.420Z,82.56
2018-09-23T00:57:45.450Z,82.42
2018-09-23T00:58:45.380Z,82.46
2018-09-23T00:59:45.357Z,82.72
2018-09-23T01:00:45.548Z,84.82
2018-09-23T01:01:45.377Z,85.41
2018-09-23T01:02:45.367Z,84.45
2018-09-23T01:03:45.441Z,84.06
2018-09-23T01:04:45.371Z,83.82
2018-09-23T01:05:45.582Z,84.02
2018-09-23T01:06:45.367Z,85.71
2018-09-23T01:07:45.471Z,85.77
2018-09-23T01:08:45.383Z,85.06
2018-09-23T01:09:45.535Z,85.53
2018-09-23T01:10:45.930Z,85.08
2018-09-23T01:11:45.565Z,85.71
2018-09-23T01:12:45.415Z,85.51
2018-09-23T01:13:45.373Z,85.24
2018-09-23T01:14:45.477Z,85.53
2018-09-23T01:15:45.360Z,85.54
2018-09-23T01:16:45.485Z,84.99
2018-09-23T01:17:45.393Z,85.42
2018-09-23T01:18:45.329Z,86.24
2018-09-23T01:19:45.332Z,85.59
2018-09-23T01:20:45.437Z,85.26
2018-09-23T01:21:45.381Z,87.74
2018-09-23T01:22:45.403Z,86.87
2018-09-23T01:23:45.352Z,86.45
2018-09-23T01:24:45.336Z,85.71
2018-09-23T01:25:45.340Z,86.78
2018-09-23T01:26:45.352Z,86.25
2018-09-23T01:27:45.350Z,86.56
2018-09-23T01:28:45.377Z,87.05
2018-09-23T01:29:45.345Z,86.4
2018-09-23T01:30:45.414Z,86.65
2018-09-23T01:31:45.336Z,86.82
2018-09-23T01:32:45.371Z,86.61
2018-09-23T01:33:45.535Z,86.46
2018-09-23T01:34:45.333Z,86.06
2018-09-23T01:35:45.409Z,86.72
2018-09-23T01:36:45.383Z,86.61
2018-09-23T01:37:45.329Z,86.33
2018-09-23T01:38:45.495Z,86.17
2018-09-23T01:39:45.365Z,86.2
2018-09-23T01:40:45.334Z,86.78
2018-09-23T01:41:46.019Z,86.88
2018-09-23T01:42:45.408Z,87.55
2018-09-23T01:43:45.347Z,87.5
2018-09-23T01:44:45.430Z,87.1
2018-09-23T01:45:45.300Z,87.37
2018-09-23T01:46:45.317Z,87.92
2018-09-23T01:47:45.304Z,87.92
2018-09-23T01:48:46.177Z,87.43
2018-09-23T01:49:45.356Z,87.98
2018-09-23T01:50:45.367Z,87.92
2018-09-23T01:51:45.293Z,87.23
2018-09-23T01:52:45.410Z,87.67
2018-09-23T01:53:45.295Z,87.52
2018-09-23T01:54:45.289Z,87.63
2018-09-23T01:55:45.453Z,88.68
2018-09-23T01:56:45.307Z,88.48
2018-09-23T01:57:45.353Z,88.23
2018-09-23T01:58:45.289Z,88.04
2018-09-23T01:59:45.534Z,87.39
2018-09-23T02:00:45.284Z,87.59
2018-09-23T02:01:45.479Z,87.69
2018-09-23T02:02:45.276Z,87.84
2018-09-23T02:03:45.318Z,87.79
2018-09-23T02:04:45.264Z,88.08
2018-09-23T02:05:45.267Z,87.93
2018-09-23T02:06:45.273Z,87.94
2018-09-23T02:07:45.352Z,87.82
2018-09-23T02:08:45.291Z,87.89
2018-09-23T02:09:45.251Z,87.8
2018-09-23T02:10:45.286Z,87.85
2018-09-23T02:11:45.294Z,88.33
2018-09-23T02:12:45.293Z,88.45
2018-09-23T02:13:45.294Z,87.98
2018-09-23T02:14:45.328Z,88.72
2018-09-23T02:15:45.373Z,88.37
2018-09-23T02:16:45.315Z,88.16
2018-09-23T02:17:45.317Z,88.17
2018-09-23T02:18:45.745Z,87.52
2018-09-23T02:19:45.264Z,87.87
2018-09-23T02:20:45.327Z,87.94
2018-09-23T02:21:45.278Z,87.5
2018-09-23T02:22:45.416Z,87.9
2018-09-23T02:23:45.512Z,88.01
2018-09-23T02:24:45.256Z,88.1
2018-09-23T02:25:45.274Z,88.04
2018-09-23T02:26:45.249Z,87.68
2018-09-23T02:27:45.790Z,88.89
2018-09-23T02:28:46.008Z,88.04
2018-09-23T02:29:45.268Z,88.02
2018-09-23T02:30:45.242Z,87.67
2018-09-23T02:31:45.257Z,87.53
2018-09-23T02:32:45.289Z,88.43
2018-09-23T02:33:45.348Z,87.67
2018-09-23T02:34:45.410Z,87.7
2018-09-23T02:35:45.238Z,88.14
2018-09-23T02:36:45.224Z,88.65
2018-09-23T02:37:45.250Z,88.1
2018-09-23T02:38:45.258Z,87.99
2018-09-23T02:39:45.439Z,88.07
2018-09-23T02:40:45.209Z,88.12
2018-09-23T02:41:45.259Z,88.38
2018-09-23T02:42:45.386Z,87.99
2018-09-23T02:43:45.249Z,88.46
2018-09-23T02:44:45.269Z,88.26
2018-09-23T02:45:45.288Z,87.86
2018-09-23T02:46:45.284Z,87.91
2018-09-23T02:47:45.371Z,87.87
2018-09-23T02:48:45.200Z,88.57
2018-09-23T02:49:45.229Z,89.45
2018-09-23T02:50:45.352Z,88.74
2018-09-23T02:51:45.221Z,88.92
2018-09-23T02:52:45.224Z,88.94
2018-09-23T02:53:45.320Z,89.14
2018-09-23T02:54:45.311Z,89.11
2018-09-23T02:55:45.199Z,89.42
2018-09-23T02:56:45.254Z,89.53
2018-09-23T02:57:45.226Z,89.45
2018-09-23T02:58:45.371Z,89.68
2018-09-23T02:59:45.405Z,89.34
2018-09-23T03:00:45.278Z,89.58
2018-09-23T03:01:45.194Z,89.27
2018-09-23T03:02:45.451Z,89.33
2018-09-23T03:03:45.225Z,88.88
2018-09-23T03:04:45.591Z,89.08
2018-09-23T03:05:45.582Z,89.54
2018-09-23T03:06:45.192Z,89.6
2018-09-23T03:07:45.809Z,89.51
2018-09-23T03:08:45.279Z,89.07
2018-09-23T03:09:45.211Z,89.77
2018-09-23T03:10:45.224Z,89.77
2018-09-23T03:11:45.205Z,90.06
2018-09-23T03:12:45.345Z,89.61
2018-09-23T03:13:45.324Z,90.03
2018-09-23T03:14:45.181Z,89.55
2018-09-23T03:15:45.178Z,90.44
2018-09-23T03:16:45.168Z,90.27
2018-09-23T03:17:45.192Z,90.32
2018-09-23T03:18:45.195Z,90.7
2018-09-23T03:19:45.174Z,90.38
2018-09-23T03:20:45.189Z,90.43
2018-09-23T03:21:45.206Z,90.63
2018-09-23T03:22:45.197Z,90
2018-09-23T03:23:45.228Z,89.65
2018-09-23T03:24:45.213Z,90.96
2018-09-23T03:25:45.216Z,90.64
2018-09-23T03:26:45.231Z,90.53
2018-09-23T03:27:45.188Z,91.07
2018-09-23T03:28:45.180Z,91.06
2018-09-23T03:29:45.178Z,90.63
2018-09-23T03:30:45.203Z,91.2
2018-09-23T03:31:45.170Z,90.99
2018-09-23T03:32:45.165Z,91.16
2018-09-23T03:33:45.135Z,90.62
2018-09-23T03:34:45.179Z,90.93
2018-09-23T03:35:45.186Z,91.25
2018-09-23T03:36:45.166Z,90.84
2018-09-23T03:37:45.268Z,90.96
2018-09-23T03:38:45.144Z,90.61
2018-09-23T03:39:45.360Z,90.25
2018-09-23T03:40:45.174Z,90.36
2018-09-23T03:41:45.192Z,90.49
2018-09-23T03:42:45.541Z,90.88
2018-09-23T03:43:45.379Z,90.86
2018-09-23T03:44:45.158Z,91.47
2018-09-23T03:45:45.220Z,91.2
2018-09-23T03:46:45.168Z,91.02
2018-09-23T03:47:45.236Z,91.12
2018-09-23T03:48:45.279Z,90.96
2018-09-23T03:49:45.151Z,90.22
2018-09-23T03:50:45.299Z,90.76
2018-09-23T03:51:45.141Z,91.04
2018-09-23T03:52:45.210Z,90.85
2018-09-23T03:53:46.509Z,90.92
2018-09-23T03:54:45.179Z,91.5
2018-09-23T03:55:45.154Z,91.34
2018-09-23T03:56:45.162Z,91.58
2018-09-23T03:57:45.149Z,91.51
2018-09-23T03:58:45.246Z,91.56
2018-09-23T03:59:45.169Z,91.36
2018-09-23T04:00:45.181Z,91.42
2018-09-23T04:01:45.131Z,91.39
2018-09-23T04:02:45.124Z,91.65
2018-09-23T04:03:45.178Z,91.69
2018-09-23T04:04:45.128Z,91.42
2018-09-23T04:05:45.237Z,91.53
2018-09-23T04:06:45.283Z,91.23
2018-09-23T04:07:45.208Z,91.38
2018-09-23T04:08:45.604Z,91.82
2018-09-23T04:09:45.124Z,91.27
2018-09-23T04:10:45.127Z,91.67
2018-09-23T04:11:45.317Z,91.5
2018-09-23T04:12:45.295Z,91.13
2018-09-23T04:13:45.331Z,91.2
2018-09-23T04:14:45.108Z,91.3
2018-09-23T04:15:45.128Z,91.3
2018-09-23T04:16:45.111Z,91.54
2018-09-23T04:17:45.115Z,91.5
2018-09-23T04:18:45.283Z,91.34
2018-09-23T04:19:45.107Z,91.64
2018-09-23T04:20:45.143Z,91.48
2018-09-23T04:21:45.081Z,91.99
2018-09-23T04:22:45.178Z,92.41
2018-09-23T04:23:45.214Z,92.1
2018-09-23T04:24:45.169Z,91.98
2018-09-23T04:25:45.231Z,92.07
2018-09-23T04:26:45.224Z,91.71
2018-09-23T04:27:45.213Z,91.83
2018-09-23T04:28:45.150Z,91.85
2018-09-23T04:29:45.183Z,91.79
2018-09-23T04:30:45.078Z,91.71
2018-09-23T04:31:45.327Z,92.01
2018-09-23T04:32:45.291Z,91.65
2018-09-23T04:33:45.129Z,92.1
2018-09-23T04:34:45.399Z,91.93
2018-09-23T04:35:45.168Z,92.11
2018-09-23T04:36:45.112Z,92.5
2018-09-23T04:37:45.088Z,92.17
2018-09-23T04:38:45.259Z,92.51
2018-09-23T04:39:45.097Z,92.2
2018-09-23T04:40:45.075Z,92.03
2018-09-23T04:41:45.363Z,91.95
2018-09-23T04:42:45.078Z,92.26
2018-09-23T04:43:45.058Z,92.75
2018-09-23T04:44:45.170Z,92.15
2018-09-23T04:45:45.083Z,92.27
2018-09-23T04:46:45.108Z,92.5
2018-09-23T04:47:45.056Z,92.18
2018-09-23T04:48:45.044Z,92.72
2018-09-23T04:49:45.069Z,92.86
2018-09-23T04:50:45.074Z,92.57
2018-09-23T04:51:45.049Z,92.47
2018-09-23T04:52:45.115Z,92.41
2018-09-23T04:53:45.168Z,92.55
2018-09-23T04:54:45.085Z,92.42
2018-09-23T04:55:45.076Z,92.24
2018-09-23T04:56:45.041Z,92.76
2018-09-23T04:57:45.081Z,92.74
2018-09-23T04:58:45.038Z,92.57
2018-09-23T04:59:45.069Z,92.78
2018-09-23T05:00:45.703Z,92.66
2018-09-23T05:01:45.236Z,92.59
2018-09-23T05:02:45.111Z,92.34
2018-09-23T05:03:45.064Z,92.32
2018-09-23T05:04:45.102Z,92.7
2018-09-23T05:05:45.158Z,92.45
2018-09-23T05:06:45.273Z,92.49
2018-09-23T05:07:45.049Z,92.85
2018-09-23T05:08:48.820Z,92.66
2018-09-23T05:09:45.035Z,92.95
2018-09-23T05:10:45.266Z,92.61
2018-09-23T05:11:45.869Z,92.86
2018-09-23T05:12:45.128Z,92.77
2018-09-23T05:13:45.072Z,92.82
2018-09-23T05:14:45.066Z,93.5
2018-09-23T05:15:45.047Z,93.45
2018-09-23T05:16:45.019Z,93.29
2018-09-23T05:17:45.023Z,93.29
2018-09-23T05:18:45.623Z,93.54
2018-09-23T05:19:45.378Z,93.71
2018-09-23T05:20:45.039Z,93.15
2018-09-23T05:21:44.999Z,93.51
2018-09-23T05:22:45.145Z,93.29
2018-09-23T05:23:45.104Z,93.56
2018-09-23T05:24:45.037Z,93.5
2018-09-23T05:25:45.054Z,93.96
2018-09-23T05:26:45.162Z,93.96
2018-09-23T05:27:45.033Z,93.66
2018-09-23T05:28:45.169Z,94.06
2018-09-23T05:29:44.978Z,94.08
2018-09-23T05:30:44.979Z,93.94
2018-09-23T05:31:45.164Z,93.87
2018-09-23T05:32:45.071Z,93.35
2018-09-23T05:33:44.999Z,93.61
2018-09-23T05:34:45.183Z,93.43
2018-09-23T05:35:45.140Z,93.65
2018-09-23T05:36:45.034Z,93.47
2018-09-23T05:37:44.994Z,93.89
2018-09-23T05:38:45.010Z,94.13
2018-09-23T05:39:45.043Z,93.46
2018-09-23T05:40:49.216Z,93.89
2018-09-23T05:41:45.002Z,93.3
2018-09-23T05:42:45.037Z,93.35
2018-09-23T05:43:44.968Z,93.28
2018-09-23T05:44:45.139Z,93.46
2018-09-23T05:45:45.029Z,93.64
2018-09-23T05:46:45.094Z,93.82
2018-09-23T05:47:45.016Z,93.59
2018-09-23T05:48:45.080Z,93.27
2018-09-23T05:49:44.990Z,93.55
2018-09-23T05:50:44.953Z,93.2
2018-09-23T05:51:45.584Z,93.23
2018-09-23T05:52:45.119Z,93.13
2018-09-23T05:53:45.014Z,92.87
2018-09-23T05:54:45.012Z,93.57
2018-09-23T05:55:45.165Z,93.75
2018-09-23T05:56:45.027Z,93.64
2018-09-23T05:57:44.983Z,93.13
2018-09-23T05:58:45.075Z,93.5
2018-09-23T05:59:44.955Z,93.11
2018-09-23T06:00:44.988Z,94.07
2018-09-23T06:01:45.246Z,93.88
2018-09-23T06:02:45.016Z,93.76
2018-09-23T06:03:45.026Z,92.98
2018-09-23T06:04:44.943Z,93.75
2018-09-23T06:05:45.042Z,94.89
2018-09-23T06:06:44.956Z,94.13
2018-09-23T06:07:45.061Z,94.84
2018-09-23T06:08:45.006Z,94.28
2018-09-23T06:09:44.999Z,93.59
2018-09-23T06:10:44.985Z,93.37
2018-09-23T06:11:44.944Z,93.1
2018-09-23T06:12:45.007Z,94.08
2018-09-23T06:13:44.936Z,94.2
2018-09-23T06:14:44.963Z,93.53
2018-09-23T06:15:44.978Z,94.61
2018-09-23T06:16:44.929Z,95.69
2018-09-23T06:17:44.979Z,94.35
2018-09-23T06:18:44.954Z,94.86
2018-09-23T06:19:44.973Z,95.51
2018-09-23T06:20:45.011Z,94.61
2018-09-23T06:21:44.953Z,94.01
2018-09-23T06:22:44.948Z,93.45
2018-09-23T06:23:45.081Z,94.02
2018-09-23T06:24:44.956Z,93.81
2018-09-23T06:25:45.039Z,93.18
2018-09-23T06:26:45.097Z,93.52
2018-09-23T06:27:44.947Z,93.71
2018-09-23T06:28:45.008Z,93.9
2018-09-23T06:29:44.919Z,95.12
2018-09-23T06:30:44.969Z,94.43
2018-09-23T06:31:44.960Z,95.61
2018-09-23T06:32:45.011Z,95.91
2018-09-23T06:33:45.045Z,94.89
2018-09-23T06:34:45.183Z,95.39
2018-09-23T06:35:45.211Z,94.66
2018-09-23T06:36:45.060Z,96.52
2018-09-23T06:37:44.980Z,96.06
2018-09-23T06:38:45.573Z,95.54
2018-09-23T06:39:44.879Z,96.77
2018-09-23T06:40:45.348Z,96.5
2018-09-23T06:41:44.994Z,96.42
2018-09-23T06:42:44.909Z,96.32
2018-09-23T06:43:47.153Z,96.68
2018-09-23T06:44:44.985Z,97.07
2018-09-23T06:45:45.391Z,96.96
2018-09-23T06:46:44.904Z,96.62
2018-09-23T06:47:45.064Z,96.79
2018-09-23T06:48:45.026Z,96.12
2018-09-23T06:49:44.930Z,96.71
2018-09-23T06:50:44.891Z,96.34
2018-09-23T06:51:45.024Z,97.42
2018-09-23T06:52:44.976Z,96.35
2018-09-23T06:53:45.059Z,97.03
2018-09-23T06:54:44.998Z,96.2
2018-09-23T06:55:45.662Z,97.97
2018-09-23T06:56:45.060Z,97.71
2018-09-23T06:57:44.884Z,97.27
2018-09-23T06:58:44.935Z,96.68
2018-09-23T06:59:44.877Z,96.82
2018-09-23T07:00:45.049Z,97.27
2018-09-23T07:01:44.986Z,97.04
2018-09-23T07:02:45.024Z,96.39
2018-09-23T07:03:45.021Z,97.44
2018-09-23T07:04:44.932Z,97.73
2018-09-23T07:05:45.020Z,97.32
2018-09-23T07:06:44.871Z,96.76
2018-09-23T07:07:45.060Z,97.17
2018-09-23T07:08:45.158Z,97.28
2018-09-23T07:09:45.165Z,97.47
2018-09-23T07:10:45.055Z,97.08
2018-09-23T07:11:44.887Z,97.23
2018-09-23T07:12:45.098Z,96.95
2018-09-23T07:13:45.020Z,96.83
2018-09-23T07:14:45.305Z,97.01
2018-09-23T07:15:44.890Z,97.28
2018-09-23T07:16:45.033Z,97.62
2018-09-23T07:17:45.061Z,97.27
2018-09-23T07:18:44.887Z,98.17
2018-09-23T07:19:45.041Z,97.28
2018-09-23T07:20:44.958Z,96.99
2018-09-23T07:21:44.905Z,97.51
2018-09-23T07:22:44.885Z,96.84
2018-09-23T07:23:45.020Z,96.26
2018-09-23T07:24:44.877Z,96.69
2018-09-23T07:25:44.973Z,96.84
2018-09-23T07:26:44.827Z,95.99
2018-09-23T07:27:45.227Z,96.33
2018-09-23T07:28:44.929Z,95.93
2018-09-23T07:29:44.862Z,96.48
2018-09-23T07:30:44.935Z,96.12
2018-09-23T07:31:44.943Z,96.18
2018-09-23T07:32:44.881Z,96.36
2018-09-23T07:33:44.892Z,96.88
2018-09-23T07:34:44.822Z,95.79
2018-09-23T07:35:44.950Z,96.19
2018-09-23T07:36:44.967Z,96.76
2018-09-23T07:37:44.897Z,96.49
2018-09-23T07:38:44.979Z,96.05
2018-09-23T07:39:44.904Z,97.26
2018-09-23T07:40:44.829Z,96.56
2018-09-23T07:41:44.806Z,96.66
2018-09-23T07:42:44.957Z,97.39
2018-09-23T07:43:44.901Z,96.89
2018-09-23T07:44:45.032Z,96.25
2018-09-23T07:45:44.914Z,95.92
2018-09-23T07:46:44.930Z,95.92
2018-09-23T07:47:45.095Z,96.59
2018-09-23T07:48:44.934Z,96.03
2018-09-23T07:49:45.040Z,96.61
2018-09-23T07:50:45.291Z,96.61
2018-09-23T07:51:44.982Z,97.01
2018-09-23T07:52:44.926Z,97.25
2018-09-23T07:53:44.968Z,98.13
2018-09-23T07:54:45.349Z,98.11
2018-09-23T07:55:45.229Z,98.05
2018-09-23T07:56:44.982Z,97.3
2018-09-23T07:57:45.039Z,97.71
2018-09-23T07:58:46.023Z,97.04
2018-09-23T07:59:44.864Z,96.64
2018-09-23T08:00:44.944Z,96.84
2018-09-23T08:01:45.956Z,96.64
2018-09-23T08:02:44.968Z,96.23
2018-09-23T08:03:45.433Z,95.93
2018-09-23T08:04:44.838Z,95.66
2018-09-23T08:05:44.807Z,94.64
2018-09-23T08:06:46.011Z,94.68
2018-09-23T08:07:44.974Z,94.56
2018-09-23T08:08:44.926Z,95.47
2018-09-23T08:09:44.824Z,95.02
2018-09-23T08:10:45.037Z,94.75
2018-09-23T08:11:45.458Z,94.74
2018-09-23T08:12:45.050Z,94.85
2018-09-23T08:13:45.179Z,93.94
2018-09-23T08:14:45.367Z,94.41
2018-09-23T08:15:44.886Z,94.63
2018-09-23T08:16:44.969Z,94.25
2018-09-23T08:17:44.777Z,94.15
2018-09-23T08:18:45.132Z,93.96
2018-09-23T08:19:45.308Z,94.9
2018-09-23T08:20:44.853Z,94.92
2018-09-23T08:21:44.917Z,94.16
2018-09-23T08:22:44.897Z,94.41
2018-09-23T08:23:45.024Z,94.38
2018-09-23T08:24:44.767Z,94.4
2018-09-23T08:25:45.038Z,94.12
2018-09-23T08:26:44.766Z,94.05
2018-09-23T08:27:44.815Z,94.27
2018-09-23T08:28:44.761Z,94.12
2018-09-23T08:29:44.745Z,94.11
2018-09-23T08:30:44.756Z,93.01
2018-09-23T08:31:45.414Z,93.85
2018-09-23T08:32:45.196Z,93.72
2018-09-23T08:33:51.808Z,93.12
2018-09-23T08:34:45.008Z,92.17
2018-09-23T08:35:44.776Z,92.34
2018-09-23T08:36:44.944Z,93.28
2018-09-23T08:37:44.949Z,92.15
2018-09-23T08:38:44.757Z,91.93
2018-09-23T08:39:45.052Z,92.22
2018-09-23T08:40:44.815Z,91.67
2018-09-23T08:41:44.785Z,91.98
2018-09-23T08:42:44.809Z,92
2018-09-23T08:43:45.055Z,91.66
2018-09-23T08:44:44.844Z,91.15
2018-09-23T08:45:44.915Z,90.51
2018-09-23T08:46:44.728Z,90.75
2018-09-23T08:47:44.794Z,90.21
2018-09-23T08:48:44.697Z,91.25
2018-09-23T08:49:44.744Z,91.03
2018-09-23T08:50:44.758Z,91.01
2018-09-23T08:51:44.761Z,90.63
2018-09-23T08:52:44.722Z,90.23
2018-09-23T08:53:44.767Z,90.34
2018-09-23T08:54:44.752Z,90.18
2018-09-23T08:55:44.730Z,90.3
2018-09-23T08:56:44.795Z,90.5
2018-09-23T08:57:44.793Z,90.58
2018-09-23T08:58:44.890Z,90.68
2018-09-23T08:59:44.717Z,90.82
2018-09-23T09:00:44.763Z,90.98
2018-09-23T09:01:44.728Z,90.92
2018-09-23T09:02:44.752Z,90.86
2018-09-23T09:03:44.830Z,90.74
2018-09-23T09:04:44.751Z,90.96
2018-09-23T09:05:44.761Z,91.32
2018-09-23T09:06:44.773Z,91.21
2018-09-23T09:07:44.742Z,91.09
2018-09-23T09:08:44.781Z,91.45
2018-09-23T09:09:44.728Z,91.42
2018-09-23T09:10:45.000Z,91.77
2018-09-23T09:11:44.797Z,91.77
2018-09-23T09:12:44.709Z,91.92
2018-09-23T09:13:44.741Z,92.1
2018-09-23T09:14:44.715Z,92.26
2018-09-23T09:15:50.254Z,92.56
2018-09-23T09:16:45.040Z,92.43
2018-09-23T09:17:44.917Z,91.97
2018-09-23T09:18:44.891Z,92.47
2018-09-23T09:19:44.710Z,92.74
2018-09-23T09:20:46.124Z,92.45
2018-09-23T09:21:44.973Z,92.69
2018-09-23T09:22:44.715Z,92.65
2018-09-23T09:23:44.927Z,92.91
2018-09-23T09:24:44.725Z,93.52
2018-09-23T09:25:44.728Z,93.1
2018-09-23T09:26:45.120Z,93.26
2018-09-23T09:27:44.954Z,93.34
2018-09-23T09:28:44.715Z,93.49
2018-09-23T09:29:45.064Z,93.42
2018-09-23T09:30:44.865Z,93.15
2018-09-23T09:31:44.881Z,92.69
2018-09-23T09:32:44.877Z,92.84
2018-09-23T09:33:45.088Z,93.04
2018-09-23T09:34:44.851Z,92.44
2018-09-23T09:35:45.006Z,92.74
2018-09-23T09:36:45.004Z,92.8
2018-09-23T09:37:44.714Z,92.74
2018-09-23T09:38:44.879Z,92.47
2018-09-23T09:39:44.829Z,92.23
2018-09-23T09:40:44.932Z,92.28
2018-09-23T09:41:44.832Z,92.4
2018-09-23T09:42:44.760Z,91.94
2018-09-23T09:43:45.559Z,91.72
2018-09-23T09:44:45.178Z,91.9
2018-09-23T09:45:45.074Z,92.11
2018-09-23T09:46:44.879Z,92.08
2018-09-23T09:47:44.873Z,92.03
2018-09-23T09:48:45.087Z,92.23
2018-09-23T09:49:44.898Z,91.87
2018-09-23T09:50:45.416Z,91.22
2018-09-23T09:51:45.208Z,91.84
2018-09-23T09:52:44.929Z,91.94
2018-09-23T09:53:44.709Z,91.97
2018-09-23T09:54:44.825Z,91.97
2018-09-23T09:55:45.045Z,91.66
2018-09-23T09:56:44.836Z,92.09
2018-09-23T09:57:44.952Z,91.93
2018-09-23T09:58:45.349Z,91.78
2018-09-23T09:59:44.894Z,91.38
2018-09-23T10:00:45.103Z,91.92
2018-09-23T10:01:44.721Z,91.57
2018-09-23T10:02:44.789Z,91.67
2018-09-23T10:03:44.698Z,91.66
2018-09-23T10:04:44.998Z,91.46
2018-09-23T10:05:44.804Z,91.91
2018-09-23T10:06:44.794Z,91.6
2018-09-23T10:07:44.683Z,91.28
2018-09-23T10:08:44.921Z,91.5
2018-09-23T10:09:45.437Z,91.63
2018-09-23T10:10:44.707Z,91.61
2018-09-23T10:11:44.934Z,91.69
2018-09-23T10:12:44.677Z,91.58
2018-09-23T10:13:44.677Z,91.46
2018-09-23T10:14:44.853Z,91.58
2018-09-23T10:15:44.641Z,91.6
2018-09-23T10:16:44.610Z,91.02
2018-09-23T10:17:44.884Z,91.62
2018-09-23T10:18:44.605Z,91.46
2018-09-23T10:19:44.649Z,90.89
2018-09-23T10:20:44.892Z,90.95
2018-09-23T10:21:44.666Z,90.71
2018-09-23T10:22:45.091Z,90.73
2018-09-23T10:23:45.981Z,90.65
2018-09-23T10:24:44.636Z,90.62
2018-09-23T10:25:44.687Z,90.4
2018-09-23T10:26:44.620Z,90.42
2018-09-23T10:27:44.672Z,89.98
2018-09-23T10:28:44.842Z,89.79
2018-09-23T10:29:45.060Z,89.71
2018-09-23T10:30:44.596Z,90
2018-09-23T10:31:44.716Z,89.55
2018-09-23T10:32:44.779Z,89.65
2018-09-23T10:33:44.670Z,89.93
2018-09-23T10:34:44.759Z,89.3
2018-09-23T10:35:45.827Z,89.38
2018-09-23T10:36:44.787Z,89.32
2018-09-23T10:37:44.735Z,88.83
2018-09-23T10:38:44.733Z,88.78
2018-09-23T10:39:44.614Z,88.33
2018-09-23T10:40:44.667Z,88.68
2018-09-23T10:41:45.769Z,88.91
2018-09-23T10:42:44.701Z,88.83
2018-09-23T10:43:44.610Z,89.1
2018-09-23T10:44:44.642Z,88.16
2018-09-23T10:45:45.148Z,87.63
2018-09-23T10:46:44.685Z,87.13
2018-09-23T10:47:44.752Z,87.2
2018-09-23T10:48:44.681Z,87.53
2018-09-23T10:49:44.688Z,87.31
2018-09-23T10:50:44.810Z,86.78
2018-09-23T10:51:44.690Z,86.93
2018-09-23T10:52:44.727Z,86.43
2018-09-23T10:53:44.552Z,86.71
2018-09-23T10:54:44.638Z,86.49
2018-09-23T10:55:44.680Z,86.13
2018-09-23T10:56:44.581Z,85.38
2018-09-23T10:57:44.682Z,86.08
2018-09-23T10:58:44.667Z,85.59
2018-09-23T10:59:45.799Z,84.84
2018-09-23T11:00:44.639Z,85.15
2018-09-23T11:01:45.098Z,85.02
2018-09-23T11:02:48.189Z,84.86
2018-09-23T11:03:44.654Z,84.85
2018-09-23T11:04:44.586Z,84.28
2018-09-23T11:05:44.588Z,84.02
2018-09-23T11:06:44.733Z,84.33
2018-09-23T11:07:44.552Z,84.42
2018-09-23T11:08:44.712Z,84.52
2018-09-23T11:09:44.798Z,84.22
2018-09-23T11:10:44.555Z,83.97
2018-09-23T11:11:45.176Z,83.86
2018-09-23T11:12:44.590Z,84.15
2018-09-23T11:13:44.578Z,84.12
2018-09-23T11:14:44.651Z,84
2018-09-23T11:15:44.692Z,84.26
2018-09-23T11:16:44.825Z,83.86
2018-09-23T11:17:44.575Z,83.34
2018-09-23T11:18:44.716Z,83.41
2018-09-23T11:19:44.606Z,83.48
2018-09-23T11:20:44.566Z,83.47
2018-09-23T11:21:44.836Z,82.98
2018-09-23T11:22:44.715Z,83
2018-09-23T11:23:44.592Z,83.55
2018-09-23T11:24:44.845Z,83.31
2018-09-23T11:25:44.560Z,82.66
2018-09-23T11:26:44.583Z,82.18
2018-09-23T11:27:44.784Z,82.15
2018-09-23T11:28:44.589Z,81.48
2018-09-23T11:29:44.590Z,81.03
2018-09-23T11:30:44.741Z,81.52
2018-09-23T11:31:44.580Z,81.92
2018-09-23T11:32:44.550Z,81.85
2018-09-23T11:33:44.716Z,81.73
2018-09-23T11:34:44.901Z,81.72
2018-09-23T11:35:44.536Z,81.12
2018-09-23T11:37:44.544Z,80.61
2018-09-23T11:38:44.556Z,80.42
2018-09-23T11:39:46.084Z,80.13
2018-09-23T11:40:44.530Z,80.24
2018-09-23T11:41:44.530Z,80.2
2018-09-23T11:42:44.593Z,80.24
2018-09-23T11:43:44.612Z,80.21
2018-09-23T11:44:44.793Z,79.67
2018-09-23T11:45:44.606Z,79.82
2018-09-23T11:46:44.548Z,79.85
2018-09-23T11:47:44.708Z,79.68
2018-09-23T11:48:44.611Z,79.55
2018-09-23T11:49:44.827Z,79.34
2018-09-23T11:50:44.724Z,79.49
2018-09-23T11:51:44.703Z,79.5
2018-09-23T11:52:44.539Z,79.91
2018-09-23T11:53:44.578Z,80.02
2018-09-23T11:54:44.686Z,79.92
2018-09-23T11:55:44.659Z,79.58
2018-09-23T11:56:44.872Z,79.09
2018-09-23T11:57:44.604Z,79.79
2018-09-23T11:58:44.722Z,79.94
2018-09-23T11:59:44.815Z,79.7
2018-09-23T12:00:44.726Z,79.4
2018-09-23T12:01:44.631Z,79.3
2018-09-23T12:02:44.815Z,79.3
2018-09-23T12:03:44.547Z,79.22
2018-09-23T12:04:44.521Z,78.8
2018-09-23T12:05:44.705Z,78.64
2018-09-23T12:06:44.732Z,78.61
2018-09-23T12:07:44.703Z,77.84
2018-09-23T12:08:44.570Z,77.86
2018-09-23T12:09:44.683Z,77.88
2018-09-23T12:10:44.496Z,77.2
2018-09-23T12:11:45.179Z,76.67
2018-09-23T12:12:44.621Z,76.68
2018-09-23T12:13:44.649Z,77
2018-09-23T12:14:44.699Z,76.66
2018-09-23T12:15:45.007Z,76.64
2018-09-23T12:16:44.510Z,75.62
2018-09-23T12:17:44.555Z,75.35
2018-09-23T12:18:44.649Z,75.21
2018-09-23T12:19:44.669Z,75.12
2018-09-23T12:20:45.242Z,75.3
2018-09-23T12:21:44.460Z,75.25
2018-09-23T12:22:44.660Z,74.71
2018-09-23T12:23:44.536Z,73.94
2018-09-23T12:24:44.489Z,73.87
2018-09-23T12:25:44.637Z,73.43
2018-09-23T12:26:44.614Z,73.01
2018-09-23T12:27:44.874Z,72.1
2018-09-23T12:28:44.496Z,72.06
2018-09-23T12:29:44.576Z,72.31
2018-09-23T12:30:44.500Z,72
2018-09-23T12:31:44.463Z,71.22
2018-09-23T12:32:44.486Z,70.73
2018-09-23T12:33:44.498Z,71.24
2018-09-23T12:34:44.587Z,71.11
2018-09-23T12:35:44.833Z,71.14
2018-09-23T12:36:44.534Z,70.46
2018-09-23T12:37:44.559Z,70.14
2018-09-23T12:38:44.660Z,69.11
2018-09-23T12:39:44.913Z,69.57
2018-09-23T12:40:44.465Z,69.97
2018-09-23T12:41:44.668Z,69.77
2018-09-23T12:42:44.468Z,69.53
2018-09-23T12:43:44.485Z,69.65
2018-09-23T12:44:44.529Z,69.91
2018-09-23T12:45:44.503Z,69.28
2018-09-23T12:46:44.479Z,69.5
2018-09-23T12:47:44.512Z,70.05
2018-09-23T12:48:44.813Z,70.17
2018-09-23T12:49:44.601Z,69.01
2018-09-23T12:50:45.137Z,68.9
2018-09-23T12:51:44.475Z,69.5
2018-09-23T12:52:44.463Z,69.49
2018-09-23T12:53:44.439Z,69.32
2018-09-23T12:54:44.447Z,68.99
2018-09-23T12:55:44.577Z,69.95
2018-09-23T12:56:44.471Z,70.19